createdAt,value
2022-11-18T00:01:30.906Z,95222.00
2022-11-18T00:03:59.165Z,95228.00
2022-11-18T00:06:31.071Z,95215.00
2022-11-18T00:09:01.935Z,95229.00
2022-11-18T00:11:48.739Z,95231.00
2022-11-18T00:14:23.361Z,95230.00
2022-11-18T00:16:55.691Z,95224.00
2022-11-18T00:19:27.268Z,95229.00
2022-11-18T00:21:55.891Z,95232.00
2022-11-18T00:24:26.406Z,95226.00
2022-11-18T00:26:54.870Z,95223.00
2022-11-18T00:29:26.249Z,95252.00
2022-11-18T00:31:54.526Z,95242.00
2022-11-18T00:34:22.821Z,95240.00
2022-11-18T00:36:51.120Z,95243.00
2022-11-18T00:39:21.396Z,95241.00
2022-11-18T00:42:08.243Z,94869.00
2022-11-18T00:44:37.120Z,95265.00
2022-11-18T00:47:05.844Z,95285.00
2022-11-18T00:49:34.207Z,95271.00
2022-11-18T00:52:02.287Z,95259.00
2022-11-18T00:54:30.443Z,95230.00
2022-11-18T00:57:00.228Z,95269.00
2022-11-18T00:59:28.286Z,95242.00
2022-11-18T01:01:56.354Z,95244.00
2022-11-18T01:04:24.505Z,95242.00
2022-11-18T01:06:52.618Z,95231.00
2022-11-18T01:09:20.780Z,95248.00
2022-11-18T01:12:06.435Z,95246.00
2022-11-18T01:14:35.921Z,95245.00
2022-11-18T01:17:04.063Z,95226.00
2022-11-18T01:19:32.196Z,95256.00
2022-11-18T01:22:03.061Z,95237.00
2022-11-18T01:24:32.335Z,95218.00
2022-11-18T01:27:01.298Z,95159.00
2022-11-18T01:29:29.523Z,95205.00
2022-11-18T01:32:23.434Z,95222.00
2022-11-18T01:34:46.955Z,95208.00
2022-11-18T01:37:15.131Z,95212.00
2022-11-18T01:39:43.171Z,95204.00
2022-11-18T01:42:16.857Z,95217.00
2022-11-18T01:45:09.492Z,95221.00
2022-11-18T01:47:46.178Z,95232.00
2022-11-18T01:50:16.258Z,95217.00
2022-11-18T01:52:50.215Z,95224.00
2022-11-18T01:55:25.658Z,95226.00
2022-11-18T01:58:03.149Z,95215.00
2022-11-18T02:00:31.326Z,95241.00
2022-11-18T02:03:03.375Z,95227.00
2022-11-18T02:05:34.753Z,95233.00
2022-11-18T02:08:04.480Z,95231.00
2022-11-18T02:10:32.802Z,95211.00
2022-11-18T02:13:01.568Z,95234.00
2022-11-18T02:15:47.165Z,95234.00
2022-11-18T02:18:29.797Z,95233.00
2022-11-18T02:21:13.094Z,95231.00
2022-11-18T02:24:29.455Z,95235.00
2022-11-18T02:27:56.659Z,95242.00
2022-11-18T02:30:26.815Z,95169.00
2022-11-18T02:33:01.365Z,95212.00
2022-11-18T02:35:40.371Z,95056.00
2022-11-18T02:38:14.252Z,95046.00
2022-11-18T02:40:48.877Z,94990.00
2022-11-18T02:43:25.736Z,95210.00
2022-11-18T02:46:01.719Z,95060.00
2022-11-18T02:48:34.838Z,95085.00
2022-11-18T02:51:07.066Z,95050.00
2022-11-18T02:53:37.236Z,95065.00
2022-11-18T02:56:07.738Z,95072.00
2022-11-18T02:58:35.775Z,95046.00
2022-11-18T03:01:05.296Z,95040.00
2022-11-18T03:03:35.864Z,95044.00
2022-11-18T03:06:14.569Z,95048.00
2022-11-18T03:08:48.667Z,95033.00
2022-11-18T03:11:22.564Z,95031.00
2022-11-18T03:14:13.932Z,95022.00
2022-11-18T03:16:55.820Z,95023.00
2022-11-18T03:19:33.917Z,95030.00
2022-11-18T03:22:14.503Z,95032.00
2022-11-18T03:24:48.571Z,95056.00
2022-11-18T03:27:25.167Z,95061.00
2022-11-18T03:30:03.373Z,95055.00
2022-11-18T03:32:39.238Z,95061.00
2022-11-18T03:35:12.691Z,95010.00
2022-11-18T03:37:44.452Z,95074.00
2022-11-18T03:40:21.432Z,95086.00
2022-11-18T03:42:54.488Z,95068.00
2022-11-18T03:45:30.179Z,95014.00
2022-11-18T03:48:06.929Z,95080.00
2022-11-18T03:50:43.185Z,95072.00
2022-11-18T03:53:13.054Z,95068.00
2022-11-18T03:55:46.087Z,95074.00
2022-11-18T03:58:23.470Z,95019.00
2022-11-18T04:00:57.786Z,95021.00
2022-11-18T04:03:27.330Z,95086.00
2022-11-18T04:06:07.467Z,95019.00
2022-11-18T04:08:41.168Z,95072.00
2022-11-18T04:11:37.008Z,95103.00
2022-11-18T04:14:08.340Z,95086.00
2022-11-18T04:16:42.131Z,95080.00
2022-11-18T04:19:11.680Z,95039.00
2022-11-18T04:21:39.846Z,95063.00
2022-11-18T04:24:08.787Z,95068.00
2022-11-18T04:26:36.877Z,95073.00
2022-11-18T04:29:05.196Z,95001.00
2022-11-18T04:31:33.607Z,95075.00
2022-11-18T04:34:01.636Z,95082.00
2022-11-18T04:36:31.059Z,95078.00
2022-11-18T04:38:59.086Z,95079.00
2022-11-18T04:41:47.118Z,95070.00
2022-11-18T04:44:15.231Z,95085.00
2022-11-18T04:46:44.598Z,95033.00
2022-11-18T04:49:16.964Z,95078.00
2022-11-18T04:51:47.548Z,95265.00
2022-11-18T04:54:17.248Z,95248.00
2022-11-18T04:56:49.372Z,95267.00
2022-11-18T04:59:21.963Z,95264.00
2022-11-18T05:01:51.159Z,95284.00
2022-11-18T05:04:21.445Z,95297.00
2022-11-18T05:06:51.415Z,95314.00
2022-11-18T05:09:20.880Z,95297.00
2022-11-18T05:12:07.127Z,95276.00
2022-11-18T05:14:35.739Z,95271.00
2022-11-18T05:17:06.615Z,95280.00
2022-11-18T05:19:34.913Z,95271.00
2022-11-18T05:22:04.322Z,95275.00
2022-11-18T05:24:32.371Z,95285.00
2022-11-18T05:27:00.445Z,95278.00
2022-11-18T05:29:28.533Z,95276.00
2022-11-18T05:31:56.649Z,95278.00
2022-11-18T05:34:24.738Z,95286.00
2022-11-18T05:36:52.770Z,95295.00
2022-11-18T05:39:22.330Z,95279.00
2022-11-18T05:42:08.243Z,95283.00
2022-11-18T05:44:36.303Z,95289.00
2022-11-18T05:47:04.442Z,95274.00
2022-11-18T05:49:32.487Z,95288.00
2022-11-18T05:52:00.674Z,95287.00
2022-11-18T05:54:30.196Z,95276.00
2022-11-18T05:56:58.272Z,95287.00
2022-11-18T05:59:26.436Z,95290.00
2022-11-18T06:02:00.698Z,95288.00
2022-11-18T06:04:34.055Z,95301.00
2022-11-18T06:07:11.569Z,95320.00
2022-11-18T06:09:46.012Z,95284.00
2022-11-18T06:12:17.923Z,95291.00
2022-11-18T06:14:52.130Z,95302.00
2022-11-18T06:17:28.279Z,95287.00
2022-11-18T06:19:57.887Z,95295.00
2022-11-18T06:22:26.644Z,95317.00
2022-11-18T06:24:56.229Z,95321.00
2022-11-18T06:27:24.520Z,95332.00
2022-11-18T06:29:52.580Z,95332.00
2022-11-18T06:32:20.761Z,95340.00
2022-11-18T06:34:48.855Z,95329.00
2022-11-18T06:37:20.552Z,95339.00
2022-11-18T06:39:48.875Z,95332.00
2022-11-18T06:42:32.238Z,95316.00
2022-11-18T06:45:00.429Z,95320.00
2022-11-18T06:47:28.861Z,95318.00
2022-11-18T06:49:56.941Z,95325.00
2022-11-18T06:52:25.385Z,95337.00
2022-11-18T06:54:53.564Z,95335.00
2022-11-18T06:57:23.253Z,95325.00
2022-11-18T06:59:52.076Z,95321.00
2022-11-18T07:02:20.708Z,95329.00
2022-11-18T07:04:49.402Z,95337.00
2022-11-18T07:07:18.330Z,95338.00
2022-11-18T07:09:47.119Z,95341.00
2022-11-18T07:12:16.078Z,95323.00
2022-11-18T07:14:45.884Z,95327.00
2022-11-18T07:17:14.669Z,95323.00
2022-11-18T07:19:42.806Z,95320.00
2022-11-18T07:22:10.934Z,95339.00
2022-11-18T07:24:38.999Z,95335.00
2022-11-18T07:27:07.108Z,95344.00
2022-11-18T07:29:35.193Z,95345.00
2022-11-18T07:32:04.920Z,95334.00
2022-11-18T07:34:35.228Z,95351.00
2022-11-18T07:37:03.419Z,95364.00
2022-11-18T07:39:31.595Z,95374.00
2022-11-18T07:41:59.655Z,95389.00
2022-11-18T07:44:27.751Z,95261.00
2022-11-18T07:46:55.871Z,95374.00
2022-11-18T07:49:25.358Z,95388.00
2022-11-18T07:51:54.491Z,95383.00
2022-11-18T07:54:22.530Z,95392.00
2022-11-18T07:56:50.599Z,95404.00
2022-11-18T07:59:18.837Z,95404.00
2022-11-18T08:01:47.007Z,95396.00
2022-11-18T08:04:15.294Z,95396.00
2022-11-18T08:06:45.575Z,95408.00
2022-11-18T08:09:14.213Z,95400.00
2022-11-18T08:11:42.463Z,95411.00
2022-11-18T08:14:10.621Z,95411.00
2022-11-18T08:16:38.755Z,95411.00
2022-11-18T08:19:06.854Z,95398.00
2022-11-18T08:21:34.911Z,95399.00
2022-11-18T08:24:04.493Z,95391.00
2022-11-18T08:26:32.534Z,95404.00
2022-11-18T08:29:00.741Z,95403.00
2022-11-18T08:31:31.543Z,95346.00
2022-11-18T08:34:02.202Z,95412.00
2022-11-18T08:36:33.041Z,95412.00
2022-11-18T08:39:06.549Z,95414.00
2022-11-18T08:41:39.087Z,95410.00
2022-11-18T08:44:09.629Z,95427.00
2022-11-18T08:46:37.678Z,95419.00
2022-11-18T08:49:06.071Z,95421.00
2022-11-18T08:51:34.237Z,95425.00
2022-11-18T08:54:04.045Z,95434.00
2022-11-18T08:56:32.123Z,95440.00
2022-11-18T08:59:00.282Z,95429.00
2022-11-18T09:01:28.472Z,95433.00
2022-11-18T09:03:57.658Z,95444.00
2022-11-18T09:06:27.042Z,95441.00
2022-11-18T09:08:55.698Z,95438.00
2022-11-18T09:11:28.020Z,95430.00
2022-11-18T09:16:46.931Z,95367.00
2022-11-18T09:19:45.669Z,95438.00
2022-11-18T09:22:07.010Z,95423.00
2022-11-18T09:24:35.466Z,95445.00
2022-11-18T09:27:10.953Z,95425.00
2022-11-18T09:29:43.393Z,95422.00
2022-11-18T09:32:11.589Z,95433.00
2022-11-18T09:34:39.840Z,95427.00
2022-11-18T09:37:08.472Z,95438.00
2022-11-18T09:39:37.551Z,95449.00
2022-11-18T09:42:30.964Z,95443.00
2022-11-18T09:45:24.008Z,95453.00
2022-11-18T09:47:56.825Z,95384.00
2022-11-18T09:53:20.858Z,95474.00
2022-11-18T09:55:50.882Z,95393.00
2022-11-18T09:58:28.238Z,95462.00
2022-11-18T10:00:56.356Z,95466.00
2022-11-18T10:03:29.585Z,95461.00
2022-11-18T10:06:07.131Z,95471.00
2022-11-18T10:08:44.423Z,95481.00
2022-11-18T10:11:19.025Z,95477.00
2022-11-18T10:14:06.031Z,95476.00
2022-11-18T10:16:52.731Z,95498.00
2022-11-18T10:19:34.118Z,95447.00
2022-11-18T10:22:24.402Z,95516.00
2022-11-18T10:24:55.905Z,95496.00
2022-11-18T10:27:34.723Z,95515.00
2022-11-18T10:30:13.780Z,95506.00
2022-11-18T10:32:58.193Z,95504.00
2022-11-18T10:35:32.374Z,95513.00
2022-11-18T10:38:08.261Z,95507.00
2022-11-18T10:40:45.103Z,95502.00
2022-11-18T10:43:14.409Z,95516.00
2022-11-18T10:45:44.898Z,95505.00
2022-11-18T10:48:20.118Z,95504.00
2022-11-18T10:50:55.606Z,95513.00
2022-11-18T10:53:34.030Z,95513.00
2022-11-18T10:56:05.524Z,95509.00
2022-11-18T10:58:45.883Z,95528.00
2022-11-18T11:01:24.289Z,95529.00
2022-11-18T11:04:02.414Z,95515.00
2022-11-18T11:06:38.084Z,95518.00
2022-11-18T11:09:11.075Z,95525.00
2022-11-18T11:11:44.187Z,95538.00
2022-11-18T11:14:23.543Z,95532.00
2022-11-18T11:17:03.457Z,95533.00
2022-11-18T11:19:44.426Z,95537.00
2022-11-18T11:22:13.616Z,95539.00
2022-11-18T11:24:42.631Z,95547.00
2022-11-18T11:30:24.605Z,95561.00
2022-11-18T11:33:23.248Z,95543.00
2022-11-18T11:36:13.816Z,95554.00
2022-11-18T11:39:04.563Z,95544.00
2022-11-18T11:41:48.597Z,95546.00
2022-11-18T11:44:33.231Z,95547.00
2022-11-18T11:47:48.702Z,95551.00
2022-11-18T11:50:28.739Z,95548.00
2022-11-18T11:53:17.430Z,95561.00
2022-11-18T11:56:05.420Z,95553.00
2022-11-18T11:59:02.736Z,95550.00
2022-11-18T12:01:41.115Z,95577.00
2022-11-18T12:04:29.248Z,95577.00
2022-11-18T12:07:00.985Z,95563.00
2022-11-18T12:09:48.879Z,95572.00
2022-11-18T12:12:38.408Z,95540.00
2022-11-18T12:15:26.286Z,95565.00
2022-11-18T12:18:05.796Z,95571.00
2022-11-18T12:20:42.020Z,95567.00
2022-11-18T12:23:14.451Z,95561.00
2022-11-18T12:26:05.265Z,95573.00
2022-11-18T12:28:38.015Z,95572.00
2022-11-18T12:31:39.264Z,95587.00
2022-11-18T12:34:31.519Z,95605.00
2022-11-18T12:37:46.215Z,95604.00
2022-11-18T12:40:38.271Z,95599.00
2022-11-18T12:43:45.392Z,95599.00
2022-11-18T12:46:50.500Z,95629.00
2022-11-18T12:50:12.700Z,95604.00
2022-11-18T12:53:01.968Z,95613.00
2022-11-18T12:55:39.035Z,95613.00
2022-11-18T12:58:24.355Z,95608.00
2022-11-18T13:01:06.207Z,95622.00
2022-11-18T13:03:35.803Z,95621.00
2022-11-18T13:06:14.563Z,95633.00
2022-11-18T13:08:43.487Z,95627.00
2022-11-18T13:11:35.585Z,95633.00
2022-11-18T13:14:23.945Z,95646.00
2022-11-18T13:17:10.506Z,95641.00
2022-11-18T13:19:40.312Z,95635.00
2022-11-18T13:22:36.967Z,95641.00
2022-11-18T13:25:07.960Z,95631.00
2022-11-18T13:28:00.550Z,95650.00
2022-11-18T13:30:30.960Z,95650.00
2022-11-18T13:33:00.603Z,95642.00
2022-11-18T13:35:30.582Z,95638.00
2022-11-18T13:38:00.750Z,95629.00
2022-11-18T13:40:32.954Z,95645.00
2022-11-18T13:43:01.010Z,95655.00
2022-11-18T13:45:31.750Z,95646.00
2022-11-18T13:48:08.279Z,95651.00
2022-11-18T13:50:43.424Z,95665.00
2022-11-18T13:53:31.053Z,95670.00
2022-11-18T13:56:04.155Z,95658.00
2022-11-18T13:59:10.262Z,95673.00
2022-11-18T14:01:32.503Z,95667.00
2022-11-18T14:04:04.319Z,95681.00
2022-11-18T14:06:36.214Z,95673.00
2022-11-18T14:09:19.652Z,95669.00
2022-11-18T14:12:01.990Z,95678.00
2022-11-18T14:14:34.711Z,95669.00
2022-11-18T14:17:18.267Z,95673.00
2022-11-18T14:19:48.261Z,95675.00
2022-11-18T14:22:21.459Z,95619.00
2022-11-18T14:24:57.832Z,95618.00
2022-11-18T14:27:42.340Z,95700.00
2022-11-18T14:30:36.588Z,95702.00
2022-11-18T14:33:21.002Z,95696.00
2022-11-18T14:35:59.133Z,95704.00
2022-11-18T14:38:48.100Z,95694.00
2022-11-18T14:41:44.402Z,95704.00
2022-11-18T14:44:14.337Z,95710.00
2022-11-18T14:46:48.330Z,95703.00
2022-11-18T14:49:22.104Z,95696.00
2022-11-18T14:51:51.258Z,95697.00
2022-11-18T14:57:17.270Z,95704.00
2022-11-18T14:59:45.679Z,95734.00
2022-11-18T15:00:27.280Z,95717.00
2022-11-18T15:02:16.897Z,95720.00
2022-11-18T15:04:45.183Z,95706.00
2022-11-18T15:07:21.723Z,95702.00
2022-11-18T15:09:52.812Z,95704.00
2022-11-18T15:12:20.895Z,95706.00
2022-11-18T15:14:48.922Z,95715.00
2022-11-18T15:17:20.172Z,95722.00
2022-11-18T15:19:48.489Z,95613.00
2022-11-18T15:22:16.547Z,95717.00
2022-11-18T15:24:44.621Z,95730.00
2022-11-18T15:27:14.041Z,95723.00
2022-11-18T15:29:42.150Z,95740.00
2022-11-18T15:32:10.211Z,95739.00
2022-11-18T15:34:38.283Z,95746.00
2022-11-18T15:37:06.968Z,95738.00
2022-11-18T15:39:35.184Z,95745.00
2022-11-18T15:42:03.343Z,95734.00
2022-11-18T15:44:33.035Z,95758.00
2022-11-18T15:47:01.578Z,95748.00
2022-11-18T15:49:29.815Z,95751.00
2022-11-18T15:51:57.960Z,95762.00
2022-11-18T15:54:26.131Z,95767.00
2022-11-18T15:56:54.336Z,95732.00
2022-11-18T15:59:22.447Z,95755.00
2022-11-18T16:01:54.250Z,95314.00
2022-11-18T16:04:22.915Z,95467.00
2022-11-18T16:06:52.128Z,95753.00
2022-11-18T16:09:20.318Z,95696.00
2022-11-18T16:12:06.367Z,95685.00
2022-11-18T16:14:38.696Z,95658.00
2022-11-18T16:17:08.154Z,95652.00
2022-11-18T16:19:36.187Z,95642.00
2022-11-18T16:22:04.335Z,95705.00
2022-11-18T16:24:32.432Z,95774.00
2022-11-18T16:27:00.526Z,95761.00
2022-11-18T16:29:28.859Z,95795.00
2022-11-18T16:31:56.113Z,95784.00
2022-11-18T16:34:28.111Z,95807.00
2022-11-18T16:36:59.676Z,95803.00
2022-11-18T16:39:29.543Z,95798.00
2022-11-18T16:42:07.299Z,95804.00
2022-11-18T16:44:36.755Z,95735.00
2022-11-18T16:47:13.957Z,95745.00
2022-11-18T16:49:44.692Z,95729.00
2022-11-18T16:52:12.971Z,95737.00
2022-11-18T16:54:45.354Z,95788.00
2022-11-18T16:57:16.626Z,95749.00
2022-11-18T16:59:44.805Z,95794.00
2022-11-18T17:02:16.939Z,95647.00
2022-11-18T17:04:46.792Z,95758.00
2022-11-18T17:07:15.052Z,95832.00
2022-11-18T17:09:43.232Z,95842.00
2022-11-18T17:12:11.368Z,95806.00
2022-11-18T17:14:40.224Z,95845.00
2022-11-18T17:17:08.897Z,95834.00
2022-11-18T17:19:36.951Z,160391.00
2022-11-18T17:22:06.346Z,231333.00
2022-11-18T17:24:34.596Z,231333.00
2022-11-18T17:27:02.671Z,91430.00
2022-11-18T17:29:32.859Z,91752.00
2022-11-18T17:32:01.252Z,95890.00
2022-11-18T17:34:29.395Z,91568.00
2022-11-18T17:37:03.147Z,95910.00
2022-11-18T17:39:36.445Z,95867.00
2022-11-18T17:42:18.944Z,93567.00
2022-11-18T17:44:47.118Z,93587.00
2022-11-18T17:47:15.309Z,93084.00
2022-11-18T17:49:43.376Z,92336.00
2022-11-18T17:52:11.583Z,92598.00
2022-11-18T17:54:40.995Z,92418.00
2022-11-18T17:57:09.022Z,92963.00
2022-11-18T17:59:37.084Z,93615.00
2022-11-18T18:02:05.201Z,93423.00
2022-11-18T18:04:33.382Z,93346.00
2022-11-18T18:07:01.502Z,93422.00
2022-11-18T18:09:31.367Z,93619.00
2022-11-18T18:12:21.477Z,94080.00
2022-11-18T18:14:48.576Z,94710.00
2022-11-18T18:17:17.055Z,94667.00
2022-11-18T18:19:45.128Z,94612.00
2022-11-18T18:22:13.273Z,94734.00
2022-11-18T18:24:41.342Z,94886.00
2022-11-18T18:27:10.910Z,94899.00
2022-11-18T18:29:38.935Z,94679.00
2022-11-18T18:32:07.095Z,95889.00
2022-11-18T18:34:35.808Z,94601.00
2022-11-18T18:37:03.885Z,94857.00
2022-11-18T18:39:31.974Z,94695.00
2022-11-18T18:42:00.451Z,94606.00
2022-11-18T18:44:50.362Z,94147.00
2022-11-18T18:47:17.755Z,94328.00
2022-11-18T18:49:45.828Z,94532.00
2022-11-18T18:52:13.947Z,95964.00
2022-11-18T18:54:42.088Z,94433.00
2022-11-18T18:57:10.365Z,94318.00
2022-11-18T18:59:39.771Z,94194.00
2022-11-18T19:02:08.052Z,94695.00
2022-11-18T19:04:36.136Z,94597.00
2022-11-18T19:07:04.279Z,94886.00
2022-11-18T19:09:35.989Z,94824.00
2022-11-18T19:12:22.701Z,94834.00
2022-11-18T19:14:52.234Z,94809.00
2022-11-18T19:17:20.592Z,94898.00
2022-11-18T19:20:06.235Z,94732.00
2022-11-18T19:22:34.826Z,94696.00
2022-11-18T19:25:03.063Z,94630.00
2022-11-18T19:27:31.574Z,94843.00
2022-11-18T19:30:01.608Z,94866.00
2022-11-18T19:32:29.794Z,94786.00
2022-11-18T19:34:57.862Z,94773.00
2022-11-18T19:37:27.900Z,94934.00
2022-11-18T19:39:56.027Z,94950.00
2022-11-18T19:42:24.086Z,94820.00
2022-11-18T19:44:52.260Z,94862.00
2022-11-18T19:47:21.777Z,95074.00
2022-11-18T19:49:49.881Z,95207.00
2022-11-18T19:52:17.947Z,95270.00
2022-11-18T19:54:46.032Z,95277.00
2022-11-18T19:57:14.182Z,95278.00
2022-11-18T19:59:42.463Z,95245.00
2022-11-18T20:02:12.494Z,95184.00
2022-11-18T20:05:02.022Z,95234.00
2022-11-18T20:07:30.605Z,95121.00
2022-11-18T20:09:58.879Z,95196.00
2022-11-18T20:12:27.110Z,95281.00
2022-11-18T20:14:55.215Z,95277.00
2022-11-18T20:17:24.793Z,95236.00
2022-11-18T20:19:54.206Z,95256.00
2022-11-18T20:22:22.258Z,95221.00
2022-11-18T20:24:50.408Z,95207.00
2022-11-18T20:27:18.806Z,95243.00
2022-11-18T20:29:47.197Z,95298.00
2022-11-18T20:32:15.307Z,95325.00
2022-11-18T20:34:43.492Z,95256.00
2022-11-18T20:37:12.942Z,95273.00
2022-11-18T20:39:41.084Z,95415.00
2022-11-18T20:42:27.064Z,95292.00
2022-11-18T20:44:55.226Z,95327.00
2022-11-18T20:47:23.362Z,95292.00
2022-11-18T20:49:51.506Z,95327.00
2022-11-18T20:52:21.027Z,95282.00
2022-11-18T20:54:49.211Z,95236.00
2022-11-18T20:57:17.289Z,95341.00
2022-11-18T20:59:45.427Z,95519.00
2022-11-18T21:02:13.513Z,95411.00
2022-11-18T21:04:41.611Z,95364.00
2022-11-18T21:07:09.747Z,95322.00
2022-11-18T21:09:39.166Z,95348.00
2022-11-18T21:12:07.341Z,95364.00
2022-11-18T21:14:34.471Z,95305.00
2022-11-18T21:17:02.634Z,95306.00
2022-11-18T21:19:34.367Z,95341.00
2022-11-18T21:22:01.479Z,95330.00
2022-11-18T21:24:31.515Z,95286.00
2022-11-18T21:27:02.190Z,95284.00
2022-11-18T21:29:33.261Z,95327.00
2022-11-18T21:32:02.348Z,95311.00
2022-11-18T21:34:31.198Z,95319.00
2022-11-18T21:36:59.291Z,95321.00
2022-11-18T21:39:27.471Z,95345.00
2022-11-18T21:41:57.109Z,95386.00
2022-11-18T21:44:27.955Z,95353.00
2022-11-18T21:46:57.082Z,95319.00
2022-11-18T21:49:25.185Z,95322.00
2022-11-18T21:51:53.284Z,95291.00
2022-11-18T21:54:21.399Z,95445.00
2022-11-18T21:56:49.449Z,95445.00
2022-11-18T21:59:17.799Z,95427.00
2022-11-18T22:01:47.494Z,95393.00
2022-11-18T22:04:36.702Z,95323.00
2022-11-18T22:07:05.299Z,95342.00
2022-11-18T22:09:36.807Z,95351.00
2022-11-18T22:12:07.699Z,95296.00
2022-11-18T22:14:36.084Z,95372.00
2022-11-18T22:17:06.115Z,95286.00
2022-11-18T22:19:34.330Z,95307.00
2022-11-18T22:22:02.597Z,95342.00
2022-11-18T22:24:30.827Z,95365.00
2022-11-18T22:26:59.014Z,95269.00
2022-11-18T22:29:27.094Z,95307.00
2022-11-18T22:31:55.175Z,95356.00
2022-11-18T22:34:24.574Z,95359.00
2022-11-18T22:36:52.625Z,95440.00
2022-11-18T22:39:21.125Z,95421.00
2022-11-18T22:42:07.052Z,95393.00
2022-11-18T22:44:35.127Z,95332.00
2022-11-18T22:47:03.274Z,95296.00
2022-11-18T22:49:32.717Z,95335.00
2022-11-18T22:52:00.743Z,95301.00
2022-11-18T22:54:38.719Z,95298.00
2022-11-18T22:57:07.293Z,95319.00
2022-11-18T22:59:35.364Z,95206.00
2022-11-18T23:02:03.450Z,95227.00
2022-11-18T23:04:32.887Z,95271.00
2022-11-18T23:07:01.089Z,95319.00
2022-11-18T23:09:29.516Z,95325.00
2022-11-18T23:12:15.030Z,95347.00
2022-11-18T23:14:43.148Z,95289.00
2022-11-18T23:17:11.223Z,95243.00
2022-11-18T23:19:43.515Z,95304.00
2022-11-18T23:22:11.971Z,95312.00
2022-11-18T23:24:40.157Z,95325.00
2022-11-18T23:27:08.312Z,95332.00
2022-11-18T23:29:36.447Z,95360.00
2022-11-18T23:32:05.048Z,95343.00
2022-11-18T23:34:33.218Z,95326.00
2022-11-18T23:37:02.636Z,95348.00
2022-11-18T23:39:30.915Z,95372.00
2022-11-18T23:41:59.035Z,95390.00
2022-11-18T23:44:41.162Z,95366.00
2022-11-18T23:47:09.247Z,95332.00
2022-11-18T23:49:37.335Z,95362.00
2022-11-18T23:52:06.996Z,95387.00
2022-11-18T23:54:35.094Z,95374.00
2022-11-18T23:57:05.117Z,95098.00
2022-11-18T23:59:34.032Z,95104.00
